Terminal Aerodrome Forecast
Issued by NWS El Paso, TX

Home | Current Version | Previous Version | Text Only | Print | Product List | Glossary On
Versions: 1 2 3 4 5 6 7 8 9 10 11 12 13 14 15 16
000
FTUS44 KEPZ 312300 RRA
TAFELP
TAF
KELP 312341Z 0100/0124 10010KT P6SM VCTS SCT060CB BKN120
      TEMPO 0100/0103 5SM -TSRA BKN050CB OVC080
     FM011000 11008KT 6SM SHRA SCT025 BKN050 OVC150
     FM011400 11007KT P6SM VCSH SCT015 BKN040 OVC220
     FM011900 29007KT P6SM SCT040 SCT120 BKN220=

USA.gov is the U.S. government's official web portal to all federal, state and local government web resources and services.